createdAt,value
2023-03-31T00:05:04.647Z,4.0
2023-03-31T00:10:18.343Z,4.0
2023-03-31T00:15:17.051Z,6.0
2023-03-31T00:20:23.256Z,6.0
2023-03-31T00:25:29.456Z,7.0
2023-03-31T00:30:35.662Z,6.0
2023-03-31T00:35:41.910Z,5.0
2023-03-31T00:40:48.121Z,6.5
2023-03-31T00:45:54.341Z,5.0
2023-03-31T00:51:00.506Z,5.0
2023-03-31T00:56:07.028Z,6.0
2023-03-31T01:01:12.929Z,6.0
2023-03-31T01:06:19.120Z,6.0
2023-03-31T01:11:25.337Z,5.0
2023-03-31T01:16:30.696Z,6.0
2023-03-31T01:21:36.780Z,4.0
2023-03-31T01:26:42.988Z,6.0
2023-03-31T01:31:48.392Z,6.0
2023-03-31T01:36:54.440Z,6.0
2023-03-31T01:42:00.647Z,5.5
2023-03-31T01:47:06.872Z,5.0
2023-03-31T01:52:13.228Z,5.0
2023-03-31T01:57:19.283Z,5.0
2023-03-31T02:02:25.557Z,6.0
2023-03-31T02:07:32.029Z,7.0
2023-03-31T02:12:37.894Z,6.0
2023-03-31T02:17:44.176Z,6.0
2023-03-31T02:22:50.309Z,8.0
2023-03-31T02:27:56.523Z,5.0
2023-03-31T02:33:02.779Z,7.0
2023-03-31T02:38:08.937Z,7.0
2023-03-31T02:43:15.143Z,8.0
2023-03-31T02:48:21.359Z,9.0
2023-03-31T02:53:27.567Z,7.0
2023-03-31T02:58:33.781Z,7.0
2023-03-31T03:03:40.032Z,9.0
2023-03-31T03:08:46.204Z,7.0
2023-03-31T03:13:52.427Z,10.5
2023-03-31T03:18:57.753Z,6.0
2023-03-31T03:24:03.855Z,6.0
2023-03-31T03:29:09.100Z,7.0
2023-03-31T03:34:15.513Z,7.0
2023-03-31T03:39:21.510Z,10.0
2023-03-31T03:44:27.720Z,9.0
2023-03-31T03:49:33.936Z,8.0
2023-03-31T03:54:40.139Z,10.0
2023-03-31T03:59:46.357Z,9.0
2023-03-31T04:04:52.610Z,7.0
2023-03-31T04:09:58.769Z,6.5
2023-03-31T04:15:04.974Z,7.5
2023-03-31T04:20:11.175Z,7.0
2023-03-31T04:25:17.404Z,7.0
2023-03-31T04:30:23.597Z,8.0
2023-03-31T04:35:30.159Z,6.0
2023-03-31T04:40:36.015Z,7.0
2023-03-31T04:45:42.240Z,6.0
2023-03-31T04:50:48.427Z,6.0
2023-03-31T04:55:54.637Z,6.0
2023-03-31T05:01:00.856Z,6.0
2023-03-31T05:06:07.329Z,7.0
2023-03-31T05:11:13.292Z,6.0
2023-03-31T05:16:18.634Z,4.5
2023-03-31T05:21:24.711Z,6.0
2023-03-31T05:26:30.925Z,7.0
2023-03-31T05:31:37.169Z,4.0
2023-03-31T05:36:43.364Z,6.0
2023-03-31T05:41:49.547Z,4.0
2023-03-31T05:46:55.750Z,5.0
2023-03-31T05:52:01.987Z,4.0
2023-03-31T05:57:08.188Z,4.0
2023-03-31T06:02:14.436Z,4.0
2023-03-31T06:07:20.591Z,5.0
2023-03-31T06:12:26.807Z,6.0
2023-03-31T06:17:33.040Z,6.0
2023-03-31T06:22:39.204Z,4.0
2023-03-31T06:27:45.433Z,3.0
2023-03-31T06:32:51.662Z,5.0
2023-03-31T06:37:57.844Z,4.0
2023-03-31T06:43:04.085Z,5.0
2023-03-31T06:53:16.460Z,5.0
2023-03-31T06:58:22.694Z,3.0
2023-03-31T07:03:29.022Z,5.0
2023-03-31T07:08:35.114Z,5.0
2023-03-31T07:13:40.316Z,5.0
2023-03-31T07:18:46.588Z,5.0
2023-03-31T07:23:51.762Z,6.0
2023-03-31T07:28:57.986Z,7.0
2023-03-31T07:34:04.178Z,6.0
2023-03-31T07:39:10.400Z,8.0
2023-03-31T07:44:16.598Z,7.0
2023-03-31T07:49:22.805Z,7.0
2023-03-31T07:54:29.016Z,5.0
2023-03-31T07:59:35.228Z,5.0
2023-03-31T08:04:41.502Z,6.0
2023-03-31T08:09:47.649Z,7.0
2023-03-31T08:14:53.849Z,6.0
2023-03-31T08:20:04.508Z,5.0
2023-03-31T08:25:06.270Z,5.0
2023-03-31T08:30:12.484Z,6.0
2023-03-31T08:35:18.684Z,6.0
2023-03-31T08:40:24.935Z,8.0
2023-03-31T08:45:31.165Z,7.0
2023-03-31T08:50:37.314Z,6.0
2023-03-31T08:55:43.533Z,8.0
2023-03-31T09:00:49.779Z,8.0
2023-03-31T09:06:00.573Z,8.0
2023-03-31T09:11:01.182Z,9.0
2023-03-31T09:16:06.792Z,8.5
2023-03-31T09:21:12.646Z,9.0
2023-03-31T09:26:17.992Z,10.0
2023-03-31T09:31:24.113Z,11.0
2023-03-31T09:36:29.375Z,9.0
2023-03-31T09:41:35.565Z,9.0
2023-03-31T09:46:42.129Z,10.0
2023-03-31T09:51:47.997Z,10.0
2023-03-31T09:56:54.293Z,11.0
2023-03-31T10:02:00.604Z,9.0
2023-03-31T10:07:06.732Z,9.0
2023-03-31T10:12:12.841Z,8.0
2023-03-31T10:17:19.091Z,10.0
2023-03-31T10:22:25.267Z,8.0
2023-03-31T10:27:31.806Z,9.0
2023-03-31T10:32:37.738Z,8.0
2023-03-31T10:37:43.886Z,7.0
2023-03-31T10:42:50.103Z,7.0
2023-03-31T10:47:56.365Z,5.0
2023-03-31T10:53:02.518Z,6.0
2023-03-31T10:58:08.721Z,6.0
2023-03-31T11:03:15.049Z,6.0
2023-03-31T11:08:21.155Z,7.0
2023-03-31T11:13:27.367Z,6.0
2023-03-31T11:18:33.618Z,7.0
2023-03-31T11:23:38.785Z,6.0
2023-03-31T11:28:44.998Z,6.0
2023-03-31T11:33:51.202Z,7.0
2023-03-31T11:38:56.467Z,7.0
2023-03-31T11:44:02.653Z,7.0
2023-03-31T11:49:08.859Z,6.0
2023-03-31T11:54:15.078Z,7.5
2023-03-31T11:59:21.320Z,7.0
2023-03-31T12:04:27.478Z,9.0
2023-03-31T12:09:33.694Z,7.0
2023-03-31T12:14:39.898Z,8.0
2023-03-31T12:19:46.116Z,7.0
2023-03-31T12:24:52.326Z,7.0
2023-03-31T12:29:58.529Z,7.0
2023-03-31T12:35:04.729Z,7.0
2023-03-31T12:40:10.952Z,6.0
2023-03-31T12:45:17.146Z,5.0
2023-03-31T12:50:23.363Z,6.0
2023-03-31T12:55:29.566Z,4.0
2023-03-31T13:00:35.903Z,5.0
2023-03-31T13:05:41.983Z,6.0
2023-03-31T13:10:48.235Z,5.0
2023-03-31T13:15:54.410Z,5.0
2023-03-31T13:21:00.807Z,6.0
2023-03-31T13:26:05.889Z,7.0
2023-03-31T13:31:12.189Z,6.0
2023-03-31T13:36:18.371Z,5.0
2023-03-31T13:41:23.497Z,6.0
2023-03-31T13:46:29.746Z,6.0
2023-03-31T13:51:35.910Z,5.0
2023-03-31T13:56:42.126Z,4.0
2023-03-31T14:01:48.728Z,4.0
2023-03-31T14:06:54.550Z,3.0
2023-03-31T14:12:00.750Z,5.0
2023-03-31T14:17:06.955Z,5.0
2023-03-31T14:22:13.162Z,4.0
2023-03-31T14:27:19.367Z,4.0
2023-03-31T14:32:25.797Z,4.0
2023-03-31T14:37:31.784Z,3.0
2023-03-31T14:42:37.988Z,4.0
2023-03-31T14:47:44.250Z,5.0
2023-03-31T14:52:50.419Z,3.0
2023-03-31T14:57:56.629Z,3.0
2023-03-31T15:03:02.853Z,3.0
2023-03-31T15:08:09.044Z,3.0
2023-03-31T15:13:15.243Z,3.0
2023-03-31T15:18:21.450Z,3.0
2023-03-31T15:23:27.765Z,1.0
2023-03-31T15:28:33.303Z,2.0
2023-03-31T15:33:39.186Z,1.0
2023-03-31T15:38:45.310Z,2.0
2023-03-31T15:43:51.526Z,0.0
2023-03-31T15:48:57.737Z,0.0
2023-03-31T15:54:03.943Z,1.0
2023-03-31T15:59:10.163Z,1.0
2023-03-31T16:04:16.383Z,1.0
2023-03-31T16:09:22.917Z,1.0
2023-03-31T16:14:28.797Z,1.0
2023-03-31T16:19:35.339Z,2.0
2023-03-31T16:24:41.234Z,1.0
2023-03-31T16:29:47.440Z,2.0
2023-03-31T16:34:53.652Z,0.0
2023-03-31T16:39:59.869Z,1.5
2023-03-31T16:45:14.489Z,1.0
2023-03-31T16:50:12.321Z,1.0
2023-03-31T16:55:18.516Z,2.0
2023-03-31T17:00:24.732Z,3.0
2023-03-31T17:05:31.224Z,2.0
2023-03-31T17:10:37.177Z,2.0
2023-03-31T17:15:42.391Z,1.5
2023-03-31T17:20:48.610Z,2.0
2023-03-31T17:25:53.841Z,1.0
2023-03-31T17:31:00.057Z,1.0
2023-03-31T17:36:05.306Z,1.0
2023-03-31T17:41:11.499Z,2.0
2023-03-31T17:46:17.773Z,2.0
2023-03-31T17:51:23.914Z,2.5
2023-03-31T17:56:30.151Z,3.0
2023-03-31T18:01:36.391Z,2.0
2023-03-31T18:06:42.550Z,3.0
2023-03-31T18:11:48.782Z,2.0
2023-03-31T18:16:54.976Z,2.0
2023-03-31T18:22:01.196Z,2.0
2023-03-31T18:27:07.384Z,1.0
2023-03-31T18:32:13.915Z,2.0
2023-03-31T18:37:19.803Z,3.0
2023-03-31T18:42:26.011Z,1.0
2023-03-31T18:47:32.296Z,3.0
2023-03-31T18:52:38.422Z,3.0
2023-03-31T18:57:44.628Z,2.0
2023-03-31T19:02:50.958Z,2.5
2023-03-31T19:07:57.053Z,3.0
2023-03-31T19:13:03.256Z,3.0
2023-03-31T19:18:09.522Z,3.0
2023-03-31T19:23:14.703Z,2.0
2023-03-31T19:28:20.925Z,2.0
2023-03-31T19:33:26.250Z,3.0
2023-03-31T19:38:32.435Z,2.0
2023-03-31T19:43:38.579Z,2.0
2023-03-31T19:48:44.774Z,4.0
2023-03-31T19:53:51.000Z,2.0
2023-03-31T19:58:57.188Z,2.0
2023-03-31T20:04:03.518Z,3.0
2023-03-31T20:09:09.663Z,3.0
2023-03-31T20:14:15.862Z,2.0
2023-03-31T20:19:22.020Z,3.0
2023-03-31T20:24:28.234Z,2.0
2023-03-31T20:29:34.433Z,3.5
2023-03-31T20:34:41.048Z,3.0
2023-03-31T20:39:46.852Z,4.0
2023-03-31T20:44:53.073Z,2.0
2023-03-31T20:49:59.268Z,4.0
2023-03-31T20:55:05.481Z,3.0
2023-03-31T21:00:11.703Z,5.0
2023-03-31T21:05:17.924Z,4.0
2023-03-31T21:10:24.102Z,3.0
2023-03-31T21:15:30.485Z,5.0
2023-03-31T21:20:35.556Z,5.0
2023-03-31T21:25:41.760Z,5.0
2023-03-31T21:30:47.000Z,5.0
2023-03-31T21:35:53.249Z,5.0
2023-03-31T21:40:59.415Z,4.0
2023-03-31T21:46:05.657Z,4.0
2023-03-31T21:51:11.839Z,4.0
2023-03-31T21:56:18.050Z,4.5
2023-03-31T22:01:24.389Z,5.0
2023-03-31T22:06:30.457Z,5.0
2023-03-31T22:11:36.663Z,4.0
2023-03-31T22:16:42.883Z,4.0
2023-03-31T22:21:49.079Z,4.0
2023-03-31T22:26:55.288Z,5.5
2023-03-31T22:32:01.531Z,5.0
2023-03-31T22:37:07.704Z,3.5
2023-03-31T22:42:13.909Z,6.0
2023-03-31T22:47:20.141Z,5.0
2023-03-31T22:52:26.328Z,3.0
2023-03-31T22:57:32.589Z,4.0
2023-03-31T23:02:38.817Z,4.0
2023-03-31T23:07:44.952Z,5.0
2023-03-31T23:12:51.172Z,4.0
2023-03-31T23:17:56.438Z,3.0
2023-03-31T23:23:02.604Z,4.0
2023-03-31T23:28:08.827Z,2.0
2023-03-31T23:33:14.052Z,3.0
2023-03-31T23:38:20.642Z,3.0
2023-03-31T23:43:26.457Z,3.0
2023-03-31T23:48:32.677Z,3.0
2023-03-31T23:53:38.878Z,3.0
2023-03-31T23:58:45.145Z,2.0
